Time;durP1;ratioP1;P1;durP2;ratioP2;P2;SDS_P1;SDS_P2;PMS_P1;PMS_P2;Temp;Humidity;BMP_temperature;BMP_pressure;BME280_temperature;BME280_humidity;BME280_pressure;Samples;Min_cycle;Max_cycle;Signal;HPM_P1;HPM_P2
2022/10/19 00:01:42;;;;;;;9.68;2.00;;;6.80;99.90;;;;;;7323648;32;20108;-60
2022/10/19 00:05:44;;;;;;;11.68;2.83;;;6.80;99.90;;;;;;7322418;32;20195;-60
2022/10/19 00:09:46;;;;;;;13.13;2.58;;;6.80;99.90;;;;;;7316156;32;20115;-60
2022/10/19 00:13:47;;;;;;;13.00;2.28;;;6.80;99.90;;;;;;7324520;32;20215;-59
2022/10/19 00:17:50;;;;;;;10.95;2.67;;;6.80;99.90;;;;;;7314645;32;20558;-59
2022/10/19 00:21:52;;;;;;;8.07;2.12;;;6.80;99.90;;;;;;7318935;32;20116;-59
2022/10/19 00:25:55;;;;;;;11.88;2.30;;;6.70;99.90;;;;;;7323565;32;20138;-59
2022/10/19 00:29:56;;;;;;;13.50;2.60;;;6.70;99.90;;;;;;7325623;32;20145;-59
2022/10/19 00:33:59;;;;;;;12.35;2.62;;;6.70;99.90;;;;;;7324696;32;20142;-59
2022/10/19 00:38:00;;;;;;;15.25;2.60;;;6.60;99.90;;;;;;7327613;32;20353;-59
2022/10/19 00:42:02;;;;;;;10.77;2.28;;;6.60;99.90;;;;;;7322377;32;20253;-59
2022/10/19 00:46:04;;;;;;;4.10;1.67;;;6.50;99.90;;;;;;7317389;32;20266;-59
2022/10/19 00:50:07;;;;;;;11.95;2.50;;;6.60;99.90;;;;;;7319037;32;20129;-59
2022/10/19 00:54:09;;;;;;;7.03;1.65;;;6.50;99.90;;;;;;7313427;32;20104;-59
2022/10/19 00:58:11;;;;;;;12.45;2.20;;;6.50;99.90;;;;;;7322282;32;20472;-59
2022/10/19 01:02:13;;;;;;;11.27;2.30;;;6.50;99.90;;;;;;7322243;32;20115;-59
2022/10/19 01:06:17;;;;;;;13.57;2.17;;;6.60;99.90;;;;;;7315824;32;20284;-59
2022/10/19 01:10:24;;;;;;;11.25;1.95;;;6.50;99.90;;;;;;7322705;32;20111;-59
2022/10/19 01:14:42;;;;;;;11.00;2.20;;;6.50;99.90;;;;;;7321555;32;20104;-58
2022/10/19 01:18:49;;;;;;;;;;;6.50;99.90;;;;;;7324109;32;20183;-59
2022/10/19 01:23:09;;;;;;;5.93;2.03;;;6.40;99.90;;;;;;7324596;32;20116;-59
2022/10/19 01:27:18;;;;;;;15.85;2.30;;;6.40;99.90;;;;;;7319992;32;20318;-59
2022/10/19 01:31:36;;;;;;;19.00;2.80;;;6.40;99.90;;;;;;7318149;32;20115;-59
2022/10/19 01:35:51;;;;;;;13.02;2.20;;;6.40;99.90;;;;;;7322842;32;20206;-59
2022/10/19 01:40:06;;;;;;;12.07;2.17;;;6.40;99.90;;;;;;7323062;32;20542;-59
2022/10/19 01:44:12;;;;;;;9.82;1.92;;;6.40;99.90;;;;;;7325531;32;20195;-59
2022/10/19 01:48:24;;;;;;;11.88;2.45;;;6.30;99.90;;;;;;7319874;32;20133;-59
2022/10/19 01:52:27;;;;;;;10.02;1.90;;;6.30;99.90;;;;;;7323991;32;20546;-59
2022/10/19 01:56:31;;;;;;;16.27;2.62;;;6.30;99.90;;;;;;7320883;32;20138;-59
2022/10/19 02:00:36;;;;;;;12.70;2.60;;;6.20;99.90;;;;;;7323687;32;20107;-59
2022/10/19 02:04:39;;;;;;;11.48;2.62;;;6.20;99.90;;;;;;7324148;32;20191;-59
2022/10/19 02:08:46;;;;;;;10.15;2.30;;;6.10;99.90;;;;;;7316920;32;20115;-59
2022/10/19 02:12:49;;;;;;;10.10;2.70;;;6.10;99.90;;;;;;7310536;32;20537;-59
2022/10/19 02:17:15;;;;;;;14.60;2.58;;;6.10;99.90;;;;;;7314739;32;20115;-59
2022/10/19 02:21:18;;;;;;;11.00;2.53;;;6.20;99.90;;;;;;7319836;32;20125;-59
2022/10/19 02:25:20;;;;;;;18.65;2.75;;;6.10;99.90;;;;;;7326021;32;20131;-59
2022/10/19 02:29:22;;;;;;;13.35;2.58;;;6.10;99.90;;;;;;7325377;32;20183;-59
2022/10/19 02:33:24;;;;;;;16.80;2.42;;;6.00;99.90;;;;;;7320107;32;20141;-61
2022/10/19 02:37:26;;;;;;;7.05;2.10;;;6.10;99.90;;;;;;7324126;32;20116;-59
2022/10/19 02:41:37;;;;;;;7.12;2.97;;;6.00;99.90;;;;;;7312786;32;20825;-59
2022/10/19 02:45:46;;;;;;;9.52;2.67;;;6.00;99.90;;;;;;7316913;32;20281;-59
2022/10/19 02:49:48;;;;;;;17.40;3.10;;;6.00;99.90;;;;;;7313644;32;20202;-59
2022/10/19 02:53:50;;;;;;;11.50;2.70;;;5.90;99.90;;;;;;7319986;32;20131;-59
2022/10/19 02:57:52;;;;;;;6.80;2.67;;;5.90;99.90;;;;;;7319198;32;20522;-59
2022/10/19 03:01:54;;;;;;;7.65;2.55;;;5.90;99.90;;;;;;7323402;32;20186;-59
2022/10/19 03:05:56;;;;;;;10.38;2.50;;;5.80;99.90;;;;;;7327657;32;20138;-60
2022/10/19 03:09:57;;;;;;;17.90;2.92;;;5.80;99.90;;;;;;7324161;32;20116;-59
2022/10/19 03:13:59;;;;;;;14.63;2.62;;;5.90;99.90;;;;;;7324698;32;20146;-59
2022/10/19 03:18:01;;;;;;;8.02;2.87;;;5.80;99.90;;;;;;7321233;32;20129;-59
2022/10/19 03:22:03;;;;;;;21.90;9.90;;;5.90;99.90;;;;;;7323009;32;20222;-60
2022/10/19 03:26:06;;;;;;;10.93;5.15;;;6.00;99.90;;;;;;7323554;32;20542;-59
2022/10/19 03:30:12;;;;;;;9.60;7.60;;;6.30;99.90;;;;;;7318563;32;20124;-60
2022/10/19 03:34:14;;;;;;;17.90;6.80;;;6.30;99.90;;;;;;7328900;32;20123;-59
2022/10/19 03:38:16;;;;;;;17.25;7.87;;;6.60;99.90;;;;;;7333299;32;20115;-60
2022/10/19 03:42:17;;;;;;;20.85;7.60;;;6.80;99.90;;;;;;7318284;32;20116;-59
2022/10/19 03:46:20;;;;;;;18.40;8.13;;;6.90;99.90;;;;;;7326919;32;20112;-59
2022/10/19 03:50:22;;;;;;;30.27;11.73;;;7.10;99.90;;;;;;7325698;32;20127;-59
2022/10/19 03:54:23;;;;;;;24.77;10.30;;;7.30;99.90;;;;;;7324604;32;20598;-60
2022/10/19 03:58:29;;;;;;;22.15;11.43;;;7.40;99.90;;;;;;7322370;32;20195;-59
2022/10/19 04:02:31;;;;;;;22.87;10.75;;;7.50;99.90;;;;;;7318287;32;20130;-60
2022/10/19 04:06:35;;;;;;;22.98;12.02;;;7.60;99.90;;;;;;7327076;32;20539;-60
2022/10/19 04:10:37;;;;;;;26.40;13.43;;;7.70;99.90;;;;;;7315095;32;20108;-59
2022/10/19 04:14:39;;;;;;;23.20;11.30;;;7.60;99.90;;;;;;7310984;32;20265;-60
2022/10/19 04:18:58;;;;;;;18.85;11.93;;;7.70;99.90;;;;;;7319859;32;20104;-60
2022/10/19 04:22:59;;;;;;;23.87;12.85;;;7.70;99.90;;;;;;7329544;32;20513;-59
2022/10/19 04:27:01;;;;;;;40.65;14.38;;;7.70;99.90;;;;;;7329045;32;20732;-59
2022/10/19 04:31:04;;;;;;;27.50;15.48;;;7.70;99.90;;;;;;7326773;32;20653;-60
2022/10/19 04:35:06;;;;;;;28.95;11.23;;;7.70;99.90;;;;;;7319000;32;20103;-59
2022/10/19 04:39:08;;;;;;;17.33;10.05;;;7.60;99.90;;;;;;7321168;32;21105;-59
2022/10/19 04:43:10;;;;;;;16.62;10.35;;;7.40;99.90;;;;;;7327879;32;20116;-60
2022/10/19 04:47:12;;;;;;;18.10;10.32;;;7.30;99.90;;;;;;7323027;32;20111;-60
2022/10/19 04:51:15;;;;;;;15.55;9.68;;;7.30;99.90;;;;;;7316205;32;20524;-60
2022/10/19 04:55:16;;;;;;;22.10;11.95;;;7.20;99.90;;;;;;7320901;32;20108;-60
2022/10/19 04:59:18;;;;;;;20.80;11.25;;;7.10;99.90;;;;;;7317484;32;20204;-61
2022/10/19 05:03:20;;;;;;;35.03;21.17;;;6.90;99.90;;;;;;7315232;32;20150;-59
2022/10/19 05:07:22;;;;;;;98.62;59.20;;;6.80;99.90;;;;;;7320169;32;20199;-59
2022/10/19 05:11:24;;;;;;;51.37;25.45;;;6.60;99.90;;;;;;7319773;32;20108;-60
2022/10/19 05:15:26;;;;;;;29.55;16.62;;;6.50;99.90;;;;;;7311453;32;20553;-59
2022/10/19 05:19:28;;;;;;;31.23;15.98;;;6.40;99.90;;;;;;7324094;32;20100;-59
2022/10/19 05:23:29;;;;;;;37.58;20.45;;;6.20;99.90;;;;;;7320458;32;20250;-59
2022/10/19 05:27:34;;;;;;;31.75;17.05;;;6.20;99.90;;;;;;7314161;32;20217;-59
2022/10/19 05:31:36;;;;;;;53.17;28.33;;;6.00;99.90;;;;;;7318106;32;20529;-61
2022/10/19 05:35:38;;;;;;;44.53;26.12;;;6.00;99.90;;;;;;7322004;32;20139;-61
2022/10/19 05:39:39;;;;;;;15.77;9.40;;;5.90;99.90;;;;;;7321584;32;20855;-61
2022/10/19 05:43:42;;;;;;;69.68;29.08;;;5.80;99.90;;;;;;7313150;32;20115;-62
2022/10/19 05:47:44;;;;;;;27.20;11.52;;;5.80;99.90;;;;;;7320335;32;20770;-62
2022/10/19 05:51:47;;;;;;;19.10;9.35;;;5.70;99.90;;;;;;7312941;32;20565;-61
2022/10/19 05:55:48;;;;;;;58.38;30.23;;;5.60;99.90;;;;;;7320378;32;20777;-61
2022/10/19 05:59:50;;;;;;;52.75;24.35;;;5.60;99.90;;;;;;7318307;32;20452;-59
2022/10/19 06:03:55;;;;;;;53.40;24.87;;;5.60;99.90;;;;;;7315533;32;20281;-59
2022/10/19 06:07:57;;;;;;;51.78;23.10;;;5.50;99.90;;;;;;7307869;32;20116;-62
2022/10/19 06:11:58;;;;;;;64.85;34.03;;;5.40;99.90;;;;;;7314733;32;20116;-63
2022/10/19 06:16:00;;;;;;;35.38;20.80;;;5.40;99.90;;;;;;7314558;32;20140;-63
2022/10/19 06:20:03;;;;;;;31.70;13.90;;;5.40;99.90;;;;;;7317911;32;20126;-62
2022/10/19 06:24:05;;;;;;;20.73;7.87;;;5.30;99.90;;;;;;7312497;32;20685;-62
2022/10/19 06:28:07;;;;;;;22.62;10.88;;;5.30;99.90;;;;;;7317604;32;20185;-62
2022/10/19 06:32:08;;;;;;;32.83;15.43;;;5.30;99.90;;;;;;7317074;32;20107;-62
2022/10/19 06:36:17;;;;;;;28.70;18.80;;;5.30;99.90;;;;;;7317312;32;20131;-62
2022/10/19 06:40:18;;;;;;;15.38;7.30;;;5.20;99.90;;;;;;7316032;32;20108;-62
2022/10/19 06:44:20;;;;;;;10.75;6.18;;;5.10;99.90;;;;;;7314332;32;20700;-64
2022/10/19 06:48:22;;;;;;;16.40;6.57;;;5.20;99.90;;;;;;7316625;32;20507;-62
2022/10/19 06:52:24;;;;;;;14.52;7.55;;;5.10;99.90;;;;;;7315883;32;20232;-64
2022/10/19 06:56:26;;;;;;;15.48;5.65;;;5.10;99.90;;;;;;7316591;32;20516;-63
2022/10/19 07:00:29;;;;;;;19.95;7.22;;;5.20;99.90;;;;;;7310501;32;20481;-62
2022/10/19 07:04:31;;;;;;;17.75;7.03;;;5.30;99.90;;;;;;7315463;32;20307;-62
2022/10/19 07:08:34;;;;;;;15.20;7.70;;;5.30;99.90;;;;;;7308260;32;20531;-62
2022/10/19 07:12:36;;;;;;;12.77;6.72;;;5.40;99.90;;;;;;7311148;32;20142;-62
2022/10/19 07:16:38;;;;;;;16.65;8.10;;;5.40;99.90;;;;;;7314929;32;20503;-62
2022/10/19 07:20:40;;;;;;;13.95;7.82;;;5.50;99.90;;;;;;7311289;32;20107;-62
2022/10/19 07:24:41;;;;;;;27.62;12.13;;;5.70;99.90;;;;;;7316230;32;20740;-62
2022/10/19 07:28:46;;;;;;;21.08;12.75;;;6.40;99.90;;;;;;7317266;32;20179;-63
2022/10/19 07:32:47;;;;;;;27.42;15.70;;;6.80;99.90;;;;;;7309536;32;20804;-62
2022/10/19 07:36:50;;;;;;;26.48;15.38;;;7.20;99.90;;;;;;7316803;32;22077;-62
2022/10/19 07:41:09;;;;;;;27.73;16.23;;;7.40;99.90;;;;;;7314555;32;20227;-62
2022/10/19 07:45:11;;;;;;;26.73;14.68;;;7.80;99.90;;;;;;7323180;32;20171;-63
2022/10/19 07:49:15;;;;;;;23.23;15.27;;;8.00;99.90;;;;;;7319435;32;20829;-63
2022/10/19 07:53:17;;;;;;;25.60;13.30;;;8.20;99.90;;;;;;7320972;32;20107;-63
2022/10/19 07:57:21;;;;;;;24.87;12.30;;;8.40;99.90;;;;;;7320597;32;20146;-63
2022/10/19 08:01:27;;;;;;;28.00;12.20;;;8.70;99.90;;;;;;7321967;32;20215;-63
2022/10/19 08:05:31;;;;;;;19.73;11.25;;;8.80;99.90;;;;;;7322828;32;20130;-63
2022/10/19 08:09:33;;;;;;;20.25;10.32;;;8.80;99.90;;;;;;7318574;32;20198;-63
2022/10/19 08:13:54;;;;;;;17.02;9.25;;;9.00;99.90;;;;;;7314684;32;20253;-63
2022/10/19 08:17:56;;;;;;;16.92;8.85;;;9.30;99.90;;;;;;7319361;32;20203;-63
2022/10/19 08:21:58;;;;;;;18.27;7.97;;;9.40;99.90;;;;;;7333386;32;20550;-63
2022/10/19 08:25:59;;;;;;;15.23;6.55;;;9.60;99.90;;;;;;7314876;32;20165;-63
2022/10/19 08:30:02;;;;;;;12.15;6.43;;;9.80;99.90;;;;;;7319215;32;20111;-62
2022/10/19 08:34:05;;;;;;;16.92;6.35;;;10.00;99.90;;;;;;7322423;32;20116;-63
2022/10/19 08:38:06;;;;;;;14.45;5.50;;;10.10;99.90;;;;;;7318475;32;20104;-63
2022/10/19 08:42:18;;;;;;;11.05;4.72;;;10.20;99.90;;;;;;7322828;32;20129;-63
2022/10/19 08:46:42;;;;;;;9.07;5.03;;;10.30;99.90;;;;;;7314897;32;20524;-63
2022/10/19 08:50:46;;;;;;;18.37;5.20;;;10.50;99.90;;;;;;7318089;32;20206;-66
2022/10/19 08:54:59;;;;;;;10.90;3.90;;;10.60;99.90;;;;;;7318686;32;20521;-63
2022/10/19 08:59:22;;;;;;;7.85;3.17;;;10.60;99.90;;;;;;7321064;32;20491;-63
2022/10/19 09:03:36;;;;;;;7.78;2.65;;;10.90;99.90;;;;;;7320848;32;20598;-64
2022/10/19 09:07:56;;;;;;;8.30;2.00;;;11.10;99.90;;;;;;7319620;32;20095;-62
2022/10/19 09:12:06;;;;;;;8.02;2.00;;;11.10;99.90;;;;;;7315788;32;20092;-62
2022/10/19 09:16:13;;;;;;;9.50;1.92;;;11.30;99.90;;;;;;7315733;32;20464;-63
2022/10/19 09:20:21;;;;;;;7.32;1.75;;;11.30;99.90;;;;;;7317818;32;20129;-63
2022/10/19 09:24:28;;;;;;;8.15;1.52;;;11.50;99.90;;;;;;7319858;32;20214;-63
2022/10/19 09:28:52;;;;;;;8.57;1.50;;;11.70;99.90;;;;;;7300318;32;20179;-63
2022/10/19 09:33:01;;;;;;;13.38;1.62;;;11.70;99.90;;;;;;7320474;32;20237;-64
2022/10/19 09:37:03;;;;;;;8.05;1.50;;;11.80;99.90;;;;;;7308055;32;20191;-62
2022/10/19 09:41:19;;;;;;;11.32;2.25;;;11.80;99.90;;;;;;7314774;32;20126;-62
2022/10/19 09:45:46;;;;;;;4.93;1.00;;;12.00;99.90;;;;;;7338174;32;20104;-63
2022/10/19 09:49:48;;;;;;;7.35;1.30;;;12.30;99.90;;;;;;7315176;32;20226;-62
2022/10/19 09:53:52;;;;;;;8.18;1.33;;;12.50;99.90;;;;;;7311138;32;20111;-62
2022/10/19 09:58:15;;;;;;;6.00;1.42;;;12.80;99.90;;;;;;7310537;32;20230;-64
2022/10/19 10:02:27;;;;;;;11.82;1.80;;;12.90;99.90;;;;;;7310630;32;20108;-62
2022/10/19 10:06:29;;;;;;;7.12;1.15;;;12.80;99.90;;;;;;7315495;32;20251;-62
2022/10/19 10:10:41;;;;;;;7.70;1.67;;;12.60;99.90;;;;;;7317143;32;20202;-62
2022/10/19 10:14:43;;;;;;;8.40;1.40;;;12.60;99.90;;;;;;7314826;32;20429;-62
2022/10/19 10:19:07;;;;;;;8.48;1.60;;;12.50;99.90;;;;;;7313000;32;20563;-63
2022/10/19 10:23:22;;;;;;;6.47;1.48;;;12.50;99.90;;;;;;7320518;32;20107;-62
2022/10/19 10:27:38;;;;;;;6.55;1.50;;;12.60;99.90;;;;;;7314325;32;20129;-63
2022/10/19 10:31:41;;;;;;;6.30;1.77;;;12.60;99.90;;;;;;7319082;32;20117;-62
2022/10/19 10:35:52;;;;;;;6.62;1.45;;;12.70;99.90;;;;;;7316238;32;20202;-63
2022/10/19 10:39:56;;;;;;;6.18;1.77;;;12.70;99.90;;;;;;7315235;32;20127;-62
2022/10/19 10:44:07;;;;;;;11.23;2.20;;;12.70;99.90;;;;;;7319104;32;20096;-62
2022/10/19 10:48:29;;;;;;;6.60;2.07;;;12.70;99.90;;;;;;7312663;32;20443;-62
2022/10/19 10:52:31;;;;;;;11.90;2.17;;;12.70;99.90;;;;;;7315523;32;20212;-62
2022/10/19 10:56:34;;;;;;;9.43;1.80;;;12.80;99.90;;;;;;7314284;32;20245;-63
2022/10/19 11:00:39;;;;;;;9.40;2.03;;;12.90;99.90;;;;;;7312999;32;20187;-62
2022/10/19 11:04:47;;;;;;;6.80;2.72;;;13.10;99.90;;;;;;7319241;32;20175;-63
2022/10/19 11:08:56;;;;;;;9.07;1.98;;;13.00;99.90;;;;;;7312637;32;20096;-62
2022/10/19 11:13:04;;;;;;;8.73;1.95;;;13.00;99.90;;;;;;7318657;32;20099;-63
2022/10/19 11:17:13;;;;;;;6.72;1.90;;;13.10;99.90;;;;;;7314978;32;20197;-63
2022/10/19 11:21:25;;;;;;;7.70;2.22;;;13.20;99.90;;;;;;7325065;32;20148;-65
2022/10/19 11:26:02;;;;;;;7.68;2.20;;;13.30;99.90;;;;;;7322497;32;20122;-63
2022/10/19 11:30:09;;;;;;;8.63;2.03;;;13.40;99.90;;;;;;7327519;32;20320;-63
2022/10/19 11:34:23;;;;;;;11.07;2.28;;;13.60;99.90;;;;;;7319529;32;20198;-62
2022/10/19 11:38:35;;;;;;;8.73;1.62;;;13.60;99.90;;;;;;7319143;32;20096;-58
2022/10/19 11:42:46;;;;;;;11.60;2.30;;;13.70;99.90;;;;;;7322419;32;20126;-62
2022/10/19 11:47:28;;;;;;;9.02;2.03;;;13.80;99.90;;;;;;7315082;32;20119;-62
2022/10/19 11:51:50;;;;;;;7.87;2.58;;;13.90;99.90;;;;;;7318775;32;20608;-62
2022/10/19 11:56:16;;;;;;;6.10;1.80;;;13.90;99.90;;;;;;7317552;32;20364;-65
2022/10/19 12:00:19;;;;;;;6.53;2.20;;;14.00;99.90;;;;;;7317250;32;20088;-62
2022/10/19 12:04:39;;;;;;;10.18;2.12;;;14.10;99.90;;;;;;7322707;32;20487;-63
2022/10/19 12:08:59;;;;;;;6.53;2.22;;;14.10;99.90;;;;;;7318891;32;20210;-62
2022/10/19 12:13:04;;;;;;;7.70;2.17;;;14.30;99.90;;;;;;7318132;32;20198;-62
2022/10/19 12:17:14;;;;;;;5.95;2.58;;;14.30;99.90;;;;;;7317422;32;20096;-63
2022/10/19 12:21:26;;;;;;;10.10;2.62;;;14.30;99.90;;;;;;7314978;32;20598;-63
2022/10/19 12:25:28;;;;;;;7.50;2.22;;;14.40;99.90;;;;;;7321164;32;20104;-62
2022/10/19 12:29:38;;;;;;;12.70;2.55;;;14.50;99.90;;;;;;7314049;32;20095;-62
2022/10/19 12:33:59;;;;;;;5.65;1.87;;;14.60;99.90;;;;;;7314039;32;20225;-65
2022/10/19 12:38:19;;;;;;;10.98;2.05;;;14.70;99.90;;;;;;7311477;32;20241;-62
2022/10/19 12:42:38;;;;;;;7.40;2.60;;;14.70;99.90;;;;;;7310856;32;20585;-62
2022/10/19 12:46:45;;;;;;;7.07;1.65;;;14.70;99.90;;;;;;7317792;32;20325;-61
2022/10/19 12:50:53;;;;;;;9.15;1.90;;;14.80;99.90;;;;;;7314668;32;20095;-61
2022/10/19 12:55:10;;;;;;;6.60;2.00;;;14.90;99.90;;;;;;7311317;32;20422;-61
2022/10/19 12:59:41;;;;;;;6.62;1.83;;;14.90;99.90;;;;;;7317846;32;20096;-61
2022/10/19 13:03:45;;;;;;;7.22;1.70;;;15.10;99.90;;;;;;7316687;32;20115;-64
2022/10/19 13:07:50;;;;;;;5.50;1.65;;;15.20;99.90;;;;;;7312052;32;20117;-61
2022/10/19 13:12:15;;;;;;;5.60;1.55;;;15.30;99.90;;;;;;7325431;32;20226;-61
2022/10/19 13:16:28;;;;;;;7.93;1.77;;;15.40;99.90;;;;;;7317084;32;20115;-61
2022/10/19 13:20:30;;;;;;;7.57;1.80;;;15.60;99.90;;;;;;7317840;32;20389;-62
2022/10/19 13:24:35;;;;;;;6.07;1.50;;;15.70;99.90;;;;;;7319158;32;20194;-62
2022/10/19 13:28:38;;;;;;;6.97;1.62;;;15.70;99.90;;;;;;7317118;32;20572;-61
2022/10/19 13:32:42;;;;;;;4.25;1.17;;;15.70;99.90;;;;;;7318325;32;20130;-62
2022/10/19 13:37:01;;;;;;;6.72;1.50;;;15.80;99.90;;;;;;7313640;32;20123;-61
2022/10/19 13:41:09;;;;;;;2.78;1.10;;;16.00;99.90;;;;;;7314881;32;20137;-61
2022/10/19 13:45:23;;;;;;;7.97;1.33;;;16.00;99.90;;;;;;7316733;32;20237;-61
2022/10/19 13:49:40;;;;;;;9.00;2.35;;;15.90;99.90;;;;;;7312066;32;20130;-62
2022/10/19 13:54:21;;;;;;;6.70;1.10;;;15.90;99.90;;;;;;7310990;32;20818;-62
2022/10/19 13:58:52;;;;;;;5.95;1.80;;;15.90;99.90;;;;;;7315515;32;20231;-62
2022/10/19 14:03:32;;;;;;;6.62;1.48;;;15.90;99.90;;;;;;7315063;32;20524;-57
2022/10/19 14:07:54;;;;;;;6.07;1.35;;;15.70;99.90;;;;;;7310246;32;20207;-63
2022/10/19 14:12:14;;;;;;;3.78;1.27;;;15.60;99.90;;;;;;7316749;32;20639;-61
2022/10/19 14:16:20;;;;;;;13.27;3.92;;;15.60;99.90;;;;;;7312588;32;20153;-61
2022/10/19 14:20:32;;;;;;;9.57;1.77;;;15.40;99.90;;;;;;7319576;32;20205;-62
2022/10/19 14:24:35;;;;;;;10.88;2.00;;;15.30;99.90;;;;;;7317045;32;20276;-61
2022/10/19 14:28:38;;;;;;;6.47;1.62;;;15.20;99.90;;;;;;7315526;32;20226;-62
2022/10/19 14:32:40;;;;;;;6.70;1.30;;;15.10;99.90;;;;;;7315963;32;20202;-61
2022/10/19 14:36:47;;;;;;;5.18;1.35;;;14.90;99.90;;;;;;7316701;32;20215;-61
2022/10/19 14:40:49;;;;;;;5.78;1.48;;;14.70;99.90;;;;;;7319467;32;20172;-62
2022/10/19 14:44:51;;;;;;;5.93;1.85;;;14.60;99.90;;;;;;7317745;32;20134;-61
2022/10/19 14:49:03;;;;;;;9.75;1.95;;;14.50;99.90;;;;;;7317541;32;21905;-62
2022/10/19 14:53:52;;;;;;;7.37;1.40;;;14.40;99.90;;;;;;7313218;32;20116;-61
2022/10/19 14:57:54;;;;;;;5.18;1.40;;;14.20;99.90;;;;;;7307043;32;20244;-63
2022/10/19 15:02:00;;;;;;;10.13;1.40;;;14.10;99.90;;;;;;7310854;32;22617;-61
2022/10/19 15:06:04;;;;;;;5.87;1.37;;;14.10;99.90;;;;;;7318061;32;20360;-62
2022/10/19 15:10:23;;;;;;;3.30;1.10;;;14.10;99.90;;;;;;7315497;32;20112;-62
2022/10/19 15:14:29;;;;;;;8.10;2.33;;;14.10;99.90;;;;;;7316183;32;20141;-62
2022/10/19 15:18:38;;;;;;;5.03;1.23;;;14.10;99.90;;;;;;7318827;32;20119;-62
2022/10/19 15:22:51;;;;;;;8.55;1.40;;;14.20;99.90;;;;;;7313439;32;20104;-62
2022/10/19 15:26:53;;;;;;;12.63;2.00;;;14.10;99.90;;;;;;7312273;32;20207;-62
2022/10/19 15:31:24;;;;;;;8.63;1.20;;;14.20;99.90;;;;;;7308752;32;20551;-62
2022/10/19 15:35:30;;;;;;;6.70;1.75;;;14.10;99.90;;;;;;7311877;32;20169;-61
2022/10/19 15:39:33;;;;;;;8.50;1.77;;;14.20;99.90;;;;;;7310185;32;20144;-61
2022/10/19 15:43:48;;;;;;;8.10;1.60;;;14.20;99.90;;;;;;7314488;32;20260;-61
2022/10/19 15:48:09;;;;;;;5.37;1.62;;;14.10;99.90;;;;;;7310931;32;20525;-62
2022/10/19 15:52:28;;;;;;;5.80;1.60;;;13.90;99.90;;;;;;7316470;32;20107;-64
2022/10/19 15:56:32;;;;;;;6.82;1.37;;;13.90;99.90;;;;;;7307814;32;20193;-62
2022/10/19 16:00:34;;;;;;;6.60;1.42;;;13.80;99.90;;;;;;7315709;32;20630;-63
2022/10/19 16:04:35;;;;;;;5.10;1.60;;;13.70;99.90;;;;;;7311702;32;20112;-62
2022/10/19 16:08:37;;;;;;;6.47;1.52;;;13.60;99.90;;;;;;7319895;32;20191;-62
2022/10/19 16:12:39;;;;;;;6.18;1.65;;;13.50;99.90;;;;;;7321330;32;20134;-64
2022/10/19 16:16:41;;;;;;;10.38;1.83;;;13.30;99.90;;;;;;7319378;32;20133;-61
2022/10/19 16:20:43;;;;;;;11.23;2.72;;;13.20;99.90;;;;;;7319261;32;20133;-61
2022/10/19 16:24:45;;;;;;;5.93;1.80;;;13.00;99.90;;;;;;7319357;32;20539;-62
2022/10/19 16:28:47;;;;;;;8.20;3.40;;;12.80;99.90;;;;;;7310115;32;20734;-62
2022/10/19 16:32:50;;;;;;;10.35;3.42;;;12.60;99.90;;;;;;7323973;32;20147;-61
2022/10/19 16:36:51;;;;;;;10.63;2.15;;;12.30;99.90;;;;;;7313495;32;20220;-61
2022/10/19 16:40:53;;;;;;;6.95;1.70;;;12.20;99.90;;;;;;7316621;32;20108;-61
2022/10/19 16:44:55;;;;;;;6.12;2.00;;;12.00;99.90;;;;;;7319196;32;20115;-59
2022/10/19 16:48:56;;;;;;;6.85;2.58;;;12.00;99.90;;;;;;7321333;32;20519;-58
2022/10/19 16:53:05;;;;;;;7.22;2.35;;;11.90;99.90;;;;;;7322441;32;20794;-59
2022/10/19 16:57:06;;;;;;;9.98;2.70;;;11.80;99.90;;;;;;7335710;32;20139;-59
2022/10/19 17:01:16;;;;;;;6.12;2.70;;;11.70;99.90;;;;;;7316705;32;20138;-60
2022/10/19 17:05:18;;;;;;;;;;;11.70;99.90;;;;;;7323227;32;20133;-59
2022/10/19 17:09:19;;;;;;;9.88;2.70;;;11.50;99.90;;;;;;7319655;32;20010;-59
2022/10/19 17:13:43;;;;;;;4.78;2.25;;;11.50;99.90;;;;;;7319175;32;20103;-60
2022/10/19 17:17:45;;;;;;;9.57;2.75;;;11.40;99.90;;;;;;7315549;32;20138;-60
2022/10/19 17:21:46;;;;;;;12.13;4.60;;;11.30;99.90;;;;;;7315967;32;20228;-60
2022/10/19 17:25:50;;;;;;;12.80;9.18;;;11.20;99.90;;;;;;7317515;32;20099;-60
2022/10/19 17:29:51;;;;;;;12.32;3.45;;;11.10;99.90;;;;;;7322279;32;20142;-61
2022/10/19 17:33:54;;;;;;;9.50;4.20;;;11.00;99.90;;;;;;7315783;32;22169;-62
2022/10/19 17:37:55;;;;;;;9.10;3.67;;;11.00;99.90;;;;;;7313921;32;20222;-63
2022/10/19 17:42:02;;;;;;;9.13;6.12;;;10.90;99.90;;;;;;7316462;32;20249;-60
2022/10/19 17:46:06;;;;;;;15.40;3.53;;;10.90;99.90;;;;;;7317607;32;20170;-60
2022/10/19 17:50:08;;;;;;;11.55;3.20;;;10.80;99.90;;;;;;7307059;32;20108;-60
2022/10/19 17:54:12;;;;;;;19.08;10.35;;;10.80;99.90;;;;;;7305076;32;20489;-60
2022/10/19 17:58:14;;;;;;;13.05;4.97;;;10.80;99.90;;;;;;7302998;32;20182;-60
2022/10/19 18:02:15;;;;;;;12.50;7.62;;;10.70;99.90;;;;;;7323544;32;20112;-60
2022/10/19 18:06:23;;;;;;;11.57;4.35;;;10.70;99.90;;;;;;7314619;32;20115;-60
2022/10/19 18:10:25;;;;;;;12.32;4.57;;;10.70;99.90;;;;;;7320862;32;20704;-60
2022/10/19 18:14:27;;;;;;;14.98;8.55;;;10.60;99.90;;;;;;7315514;32;20104;-59
2022/10/19 18:18:30;;;;;;;10.30;4.53;;;10.60;99.90;;;;;;7305962;32;20150;-59
2022/10/19 18:22:32;;;;;;;8.40;3.45;;;10.60;99.90;;;;;;7314224;32;20215;-62
2022/10/19 18:26:34;;;;;;;11.43;4.53;;;10.60;99.90;;;;;;7316074;32;20539;-63
2022/10/19 18:30:36;;;;;;;6.43;3.00;;;10.60;99.90;;;;;;7320772;32;20113;-61
2022/10/19 18:34:38;;;;;;;9.07;3.50;;;10.60;99.90;;;;;;7317290;32;20116;-62
2022/10/19 18:38:40;;;;;;;9.02;2.97;;;10.60;99.90;;;;;;7332978;32;20116;-62
2022/10/19 18:42:42;;;;;;;5.35;2.60;;;10.50;99.90;;;;;;7323051;32;20103;-64
2022/10/19 18:46:44;;;;;;;6.72;2.90;;;10.50;99.90;;;;;;7319895;32;20104;-64
2022/10/19 18:50:46;;;;;;;15.30;3.25;;;10.40;99.90;;;;;;7317657;32;20984;-63
2022/10/19 18:54:48;;;;;;;6.72;2.42;;;10.30;99.90;;;;;;7318089;32;20146;-62
2022/10/19 18:58:50;;;;;;;7.75;2.37;;;10.20;99.90;;;;;;7315382;32;20195;-61
2022/10/19 19:02:55;;;;;;;12.35;5.62;;;10.10;99.90;;;;;;7316419;32;20179;-61
2022/10/19 19:06:56;;;;;;;19.70;4.87;;;9.80;99.90;;;;;;7319599;32;20171;-62
2022/10/19 19:11:18;;;;;;;14.18;4.18;;;9.60;99.90;;;;;;7315402;32;20111;-64
2022/10/19 19:15:20;;;;;;;8.50;3.50;;;9.50;99.90;;;;;;7319528;32;20099;-62
2022/10/19 19:19:24;;;;;;;22.42;7.72;;;9.30;99.90;;;;;;7313424;32;20598;-61
2022/10/19 19:23:26;;;;;;;15.73;3.42;;;9.30;99.90;;;;;;7313821;32;20167;-62
2022/10/19 19:27:28;;;;;;;11.10;3.47;;;9.20;99.90;;;;;;7315486;32;20137;-63
2022/10/19 19:31:33;;;;;;;15.82;3.90;;;9.10;99.90;;;;;;7313178;32;20123;-61
2022/10/19 19:35:44;;;;;;;13.18;4.53;;;9.00;99.90;;;;;;7314453;32;20138;-60
2022/10/19 19:39:46;;;;;;;14.15;3.58;;;9.10;99.90;;;;;;7314890;32;20215;-63
2022/10/19 19:43:47;;;;;;;10.25;3.87;;;9.10;99.90;;;;;;7320509;32;20162;-62
2022/10/19 19:47:49;;;;;;;18.67;4.18;;;9.00;99.90;;;;;;7318899;32;20104;-63
2022/10/19 19:51:52;;;;;;;16.00;4.93;;;8.80;99.90;;;;;;7319971;32;20194;-63
2022/10/19 19:55:53;;;;;;;12.07;4.53;;;8.70;99.90;;;;;;7316333;32;20253;-60
2022/10/19 19:59:55;;;;;;;13.75;4.70;;;8.60;99.90;;;;;;7317582;32;20584;-60
2022/10/19 20:03:58;;;;;;;14.77;5.35;;;8.60;99.90;;;;;;7315717;32;20179;-61
2022/10/19 20:08:00;;;;;;;73.47;27.45;;;8.40;99.90;;;;;;7324916;32;20512;-61
2022/10/19 20:12:01;;;;;;;43.17;19.73;;;8.30;99.90;;;;;;7326280;32;20115;-62
2022/10/19 20:16:32;;;;;;;64.00;26.67;;;8.20;99.90;;;;;;7315976;32;20200;-64
2022/10/19 20:20:33;;;;;;;17.33;8.85;;;8.10;99.90;;;;;;7318755;32;20242;-61
2022/10/19 20:24:35;;;;;;;11.82;5.22;;;8.00;99.90;;;;;;7324870;32;20222;-64
2022/10/19 20:28:38;;;;;;;9.05;5.18;;;8.00;99.90;;;;;;7324024;32;20222;-62
2022/10/19 20:32:40;;;;;;;8.38;5.80;;;8.00;99.90;;;;;;7313123;32;20111;-61
2022/10/19 20:36:42;;;;;;;14.50;5.03;;;7.90;99.90;;;;;;7317558;32;20103;-63
2022/10/19 20:40:43;;;;;;;10.63;4.85;;;7.90;99.90;;;;;;7325240;32;20123;-60
2022/10/19 20:44:45;;;;;;;16.45;5.85;;;7.90;99.90;;;;;;7317354;32;20107;-63
2022/10/19 20:48:48;;;;;;;22.87;6.37;;;7.80;99.90;;;;;;7318228;32;20123;-62
2022/10/19 20:52:49;;;;;;;10.38;5.10;;;7.80;99.90;;;;;;7315065;32;20140;-62
2022/10/19 20:56:51;;;;;;;13.23;5.60;;;7.80;99.90;;;;;;7314716;32;20107;-62
2022/10/19 21:00:53;;;;;;;16.10;4.95;;;7.80;99.90;;;;;;7318505;32;20238;-60
2022/10/19 21:04:55;;;;;;;14.77;5.20;;;7.80;99.90;;;;;;7322919;32;20119;-60
2022/10/19 21:08:57;;;;;;;14.75;4.68;;;7.90;99.90;;;;;;7323411;32;20107;-61
2022/10/19 21:12:59;;;;;;;11.40;3.92;;;8.10;99.90;;;;;;7317532;32;20237;-60
2022/10/19 21:17:01;;;;;;;14.65;4.10;;;8.20;99.90;;;;;;7318319;32;20145;-60
2022/10/19 21:21:14;;;;;;;12.25;3.75;;;8.20;99.90;;;;;;7318771;32;20138;-60